Time;durP1;ratioP1;P1;durP2;ratioP2;P2;SDS_P1;SDS_P2;PMS_P1;PMS_P2;Temp;Humidity;BMP_temperature;BMP_pressure;BME280_temperature;BME280_humidity;BME280_pressure;Samples;Min_cycle;Max_cycle;Signal;HPM_P1;HPM_P2
2022/03/22 00:00:49;;;;;;;10.83;6.80;;;;;;;3.40;49.18;100445.34;5112765;27;40091;-74
2022/03/22 00:03:24;;;;;;;10.47;6.10;;;;;;;3.39;49.15;100451.47;5129762;27;41817;-74
2022/03/22 00:05:52;;;;;;;14.47;6.53;;;;;;;3.23;49.23;100428.00;5112601;27;41645;-71
2022/03/22 00:08:19;;;;;;;10.97;6.90;;;;;;;3.22;48.98;100436.75;5129788;27;41133;-72
2022/03/22 00:10:47;;;;;;;11.40;6.60;;;;;;;3.26;48.99;100440.22;5133011;27;41681;-74
2022/03/22 00:13:15;;;;;;;9.53;6.10;;;;;;;3.21;48.81;100445.47;5133307;27;42773;-73
2022/03/22 00:15:44;;;;;;;10.57;6.27;;;;;;;3.17;48.77;100451.63;5133742;27;43763;-73
2022/03/22 00:18:11;;;;;;;8.00;5.13;;;;;;;3.13;49.27;100449.91;5134432;27;42982;-72
2022/03/22 00:20:42;;;;;;;10.47;7.17;;;;;;;2.95;50.09;100423.00;5135571;27;20214;-73
2022/03/22 00:23:09;;;;;;;10.77;7.17;;;;;;;3.07;49.95;100439.50;5133556;27;42519;-74
2022/03/22 00:25:37;;;;;;;9.90;7.03;;;;;;;3.03;49.74;100448.25;5135326;27;43440;-72
2022/03/22 00:28:05;;;;;;;8.13;5.87;;;;;;;2.99;49.51;100454.38;5133957;27;43337;-73
2022/03/22 00:30:35;;;;;;;9.60;6.17;;;;;;;2.94;50.14;100443.06;5134312;27;40915;-74
2022/03/22 00:33:05;;;;;;;10.00;6.80;;;;;;;2.91;50.22;100448.31;5133370;27;42405;-74
2022/03/22 00:35:36;;;;;;;11.47;6.97;;;;;;;2.86;50.06;100443.09;5135115;27;42431;-74
2022/03/22 00:38:08;;;;;;;9.37;5.80;;;;;;;2.83;50.31;100444.88;5133857;27;42263;-73
2022/03/22 00:40:36;;;;;;;11.03;7.27;;;;;;;2.81;50.06;100444.03;5131968;27;40925;-73
2022/03/22 00:43:04;;;;;;;10.10;6.27;;;;;;;2.78;50.51;100447.53;5133205;27;41028;-74
2022/03/22 00:45:33;;;;;;;8.90;6.43;;;;;;;2.64;51.58;100423.19;5116295;27;44091;-73
2022/03/22 00:48:02;;;;;;;13.80;7.67;;;;;;;2.75;52.32;100438.81;5132826;27;43191;-75
2022/03/22 00:50:33;;;;;;;9.40;6.57;;;;;;;2.71;51.63;100431.88;5134876;27;41842;-75
2022/03/22 00:53:01;;;;;;;15.70;8.90;;;;;;;2.68;51.58;100442.34;5115900;27;42150;-74
2022/03/22 00:55:30;;;;;;;13.60;8.57;;;;;;;2.61;51.26;100435.41;5133390;27;44695;-73
2022/03/22 00:57:58;;;;;;;14.70;7.20;;;;;;;2.61;51.62;100443.25;5133147;27;42114;-72
2022/03/22 01:00:27;;;;;;;12.17;8.77;;;;;;;2.58;51.81;100443.28;5134134;27;40959;-74
2022/03/22 01:02:56;;;;;;;10.97;7.43;;;;;;;2.55;51.42;100438.06;5134223;27;41731;-74
2022/03/22 01:05:27;;;;;;;11.37;6.23;;;;;;;2.52;51.92;100442.41;5133504;27;43056;-74
2022/03/22 01:07:57;;;;;;;10.53;7.20;;;;;;;2.50;52.42;100444.16;5115847;27;43275;-72
2022/03/22 01:10:26;;;;;;;12.10;8.10;;;;;;;2.36;52.08;100411.97;5115926;27;39468;-71
2022/03/22 01:12:56;;;;;;;13.20;7.93;;;;;;;2.44;51.83;100438.97;5133027;27;41881;-72
2022/03/22 01:15:25;;;;;;;14.50;8.03;;;;;;;2.44;53.21;100430.25;5098999;27;42910;-74
2022/03/22 01:17:55;;;;;;;11.87;7.73;;;;;;;2.42;52.75;100435.50;5115593;27;41274;-74
2022/03/22 01:20:25;;;;;;;15.20;8.47;;;;;;;2.37;52.34;100437.25;5133657;27;40784;-75
2022/03/22 01:22:54;;;;;;;14.03;8.10;;;;;;;2.34;52.29;100439.91;5114818;27;42380;-73
2022/03/22 01:25:25;;;;;;;10.10;6.80;;;;;;;2.27;52.00;100432.94;5115739;27;43369;-73
2022/03/22 01:27:55;;;;;;;12.50;6.47;;;;;;;2.24;51.82;100437.28;5115520;27;42004;-72
2022/03/22 01:30:25;;;;;;;8.10;5.43;;;;;;;2.22;52.13;100439.94;5135183;27;40409;-73
2022/03/22 01:32:55;;;;;;;12.37;7.33;;;;;;;2.20;54.36;100414.69;5116496;27;41752;-73
2022/03/22 01:35:24;;;;;;;11.83;7.00;;;;;;;2.17;53.81;100426.88;5115962;27;42484;-73
2022/03/22 01:37:55;;;;;;;14.23;7.87;;;;;;;2.15;54.09;100419.91;5133686;27;42140;-74
2022/03/22 01:40:24;;;;;;;10.30;6.80;;;;;;;2.09;53.48;100418.22;5115928;27;40145;-72
2022/03/22 01:42:53;;;;;;;12.47;7.30;;;;;;;2.09;53.47;100420.81;5098104;27;42531;-73
2022/03/22 01:45:22;;;;;;;14.37;7.73;;;;;;;2.07;53.79;100421.69;5099503;27;44733;-74
2022/03/22 01:47:52;;;;;;;12.50;8.03;;;;;;;2.04;53.71;100427.78;5099117;27;44098;-74
2022/03/22 01:50:22;;;;;;;10.27;7.07;;;;;;;1.69;53.91;100370.44;5116612;27;42569;-72
2022/03/22 01:52:50;;;;;;;12.50;7.60;;;;;;;2.02;53.79;100426.06;5116506;27;42647;-74
2022/03/22 01:55:21;;;;;;;15.43;7.70;;;;;;;1.95;53.43;100429.56;5099112;27;41393;-71
2022/03/22 01:57:49;;;;;;;10.17;6.63;;;;;;;1.95;53.89;100420.00;5115786;27;42299;-72
2022/03/22 02:00:19;;;;;;;13.73;6.70;;;;;;;1.91;55.20;100402.56;5115152;27;39934;-74
2022/03/22 02:06:02;;;;;;;11.27;6.70;;;;;;;1.90;56.20;100400.84;5064702;27;42439;-74
2022/03/22 02:08:31;;;;;;;10.60;6.77;;;;;;;1.88;55.45;100417.38;5115043;27;42250;-74
2022/03/22 02:11:01;;;;;;;11.70;6.73;;;;;;;1.84;55.05;100415.66;5114983;27;40987;-74
2022/03/22 02:13:29;;;;;;;8.57;6.43;;;;;;;1.81;55.02;100408.69;5097887;27;40661;-72
2022/03/22 02:15:59;;;;;;;13.67;7.90;;;;;;;1.77;54.79;100410.44;5114838;27;43804;-73
2022/03/22 02:18:28;;;;;;;14.30;8.77;;;;;;;1.73;54.79;100406.09;5114674;27;42440;-75
2022/03/22 02:20:57;;;;;;;14.83;9.50;;;;;;;1.71;55.08;100404.38;5097696;27;41413;-73
2022/03/22 02:23:37;;;;;;;14.63;8.57;;;;;;;1.57;56.53;100380.03;5132346;27;41400;-72
2022/03/22 02:26:06;;;;;;;15.67;8.80;;;;;;;1.65;59.26;100389.56;5130494;27;42774;-72
2022/03/22 02:28:34;;;;;;;13.37;8.87;;;;;;;1.70;58.12;100393.06;5097000;27;41509;-73
2022/03/22 02:31:01;;;;;;;15.30;8.53;;;;;;;1.66;57.17;100399.16;5096892;27;40986;-72
2022/03/22 02:33:29;;;;;;;14.70;8.10;;;;;;;1.65;56.82;100410.47;5114554;27;41710;-73
2022/03/22 02:35:56;;;;;;;12.80;8.17;;;;;;;1.61;56.72;100408.72;5097233;27;41775;-74
2022/03/22 02:38:24;;;;;;;12.03;7.90;;;;;;;1.58;59.02;100393.09;5114646;27;43207;-74
2022/03/22 02:40:53;;;;;;;16.57;9.10;;;;;;;1.61;58.37;100403.50;5097176;27;40548;-74
2022/03/22 02:43:21;;;;;;;13.57;8.70;;;;;;;1.59;57.74;100407.88;5114503;27;42477;-72
2022/03/22 02:45:49;;;;;;;11.33;7.50;;;;;;;1.20;56.94;100345.28;5114387;27;42796;-72
2022/03/22 02:48:18;;;;;;;11.17;6.77;;;;;;;1.53;56.56;100412.22;5113515;27;41360;-72
2022/03/22 02:50:46;;;;;;;12.07;6.60;;;;;;;1.49;56.56;100413.09;5114241;27;40086;-72
2022/03/22 02:53:13;;;;;;;10.43;6.60;;;;;;;1.46;56.11;100418.34;5114219;27;42756;-73
2022/03/22 02:55:41;;;;;;;10.63;7.13;;;;;;;1.41;55.87;100426.16;5114570;27;43482;-73
2022/03/22 02:58:11;;;;;;;8.50;5.47;;;;;;;1.37;56.06;100425.28;5132008;27;43232;-73
2022/03/22 03:00:38;;;;;;;11.70;7.40;;;;;;;1.34;56.45;100424.44;5114418;27;41861;-73
2022/03/22 03:03:06;;;;;;;9.37;6.60;;;;;;;1.33;56.29;100427.91;5113693;27;40705;-73
2022/03/22 03:05:34;;;;;;;9.00;6.40;;;;;;;1.31;56.67;100422.69;5097344;27;41415;-73
2022/03/22 03:08:02;;;;;;;14.07;8.00;;;;;;;1.30;56.50;100420.06;5132058;27;43240;-74
2022/03/22 03:10:30;;;;;;;10.57;6.57;;;;;;;1.28;57.37;100419.19;5114404;27;41315;-74
2022/03/22 03:13:00;;;;;;;13.50;7.47;;;;;;;1.25;57.24;100413.97;5114011;27;42647;-72
2022/03/22 03:15:28;;;;;;;12.50;8.40;;;;;;;1.24;57.11;100414.84;5113092;27;41373;-71
2022/03/22 03:17:56;;;;;;;11.03;7.47;;;;;;;1.08;56.70;100398.34;5131921;27;42416;-74
2022/03/22 03:20:24;;;;;;;12.70;6.50;;;;;;;1.16;56.59;100416.59;5132805;27;41026;-73
2022/03/22 03:22:52;;;;;;;11.67;7.77;;;;;;;1.16;56.70;100421.81;5113803;27;42752;-72
2022/03/22 03:25:20;;;;;;;11.53;6.20;;;;;;;1.15;56.29;100422.66;5114053;27;43495;-73
2022/03/22 03:27:47;;;;;;;12.03;6.87;;;;;;;1.13;56.25;100429.63;5113482;27;41109;-72
2022/03/22 03:30:15;;;;;;;13.87;8.73;;;;;;;1.10;56.06;100424.44;5100683;27;40070;-74
2022/03/22 03:32:45;;;;;;;15.60;7.30;;;;;;;1.08;56.75;100427.91;5132366;27;41472;-75
2022/03/22 03:35:12;;;;;;;12.37;6.50;;;;;;;1.08;57.18;100414.84;5132094;27;43432;-71
2022/03/22 03:37:42;;;;;;;7.57;5.90;;;;;;;1.06;56.70;100423.53;5131808;27;42301;-72
2022/03/22 03:40:11;;;;;;;11.40;6.43;;;;;;;1.03;57.47;100413.97;5129088;27;40997;-73
2022/03/22 03:42:42;;;;;;;10.27;5.80;;;;;;;1.01;57.06;100420.91;5130951;27;41821;-73
2022/03/22 03:47:58;;;;;;;10.27;6.10;;;;;;;0.94;57.65;100419.19;5129830;27;42606;-74
2022/03/22 03:50:26;;;;;;;14.13;7.83;;;;;;;0.97;58.23;100424.41;5132727;27;41833;-73
2022/03/22 03:52:54;;;;;;;13.53;7.60;;;;;;;0.96;59.29;100422.66;5117001;27;40524;-72
2022/03/22 03:55:22;;;;;;;11.93;7.23;;;;;;;0.96;58.55;100419.19;5134958;27;43657;-72
2022/03/22 03:57:50;;;;;;;11.83;7.57;;;;;;;0.94;59.02;100424.41;5135591;27;42989;-72
2022/03/22 04:00:19;;;;;;;11.97;6.73;;;;;;;0.95;59.45;100426.16;5134456;27;40774;-74
2022/03/22 04:02:49;;;;;;;13.40;7.83;;;;;;;0.95;59.47;100420.06;5135755;27;42705;-71
2022/03/22 04:05:18;;;;;;;14.67;8.33;;;;;;;0.94;59.96;100428.75;5135072;27;43587;-73
2022/03/22 04:07:46;;;;;;;13.03;7.77;;;;;;;0.91;59.50;100424.38;5116679;27;42232;-74
2022/03/22 04:10:13;;;;;;;10.37;6.83;;;;;;;0.49;59.20;100351.34;5099862;27;39964;-74
2022/03/22 04:12:42;;;;;;;11.73;6.83;;;;;;;0.88;58.97;100434.81;5099659;27;40625;-72
2022/03/22 04:15:10;;;;;;;11.87;7.47;;;;;;;0.87;58.58;100433.06;5115912;27;43980;-72
2022/03/22 04:17:38;;;;;;;12.27;5.70;;;;;;;0.76;58.57;100424.34;5116311;27;43023;-71
2022/03/22 04:20:07;;;;;;;9.13;5.90;;;;;;;0.78;58.18;100429.56;5099512;27;42649;-73
2022/03/22 04:22:36;;;;;;;10.60;6.23;;;;;;;0.78;58.04;100433.06;5134174;27;41562;-74
2022/03/22 04:25:04;;;;;;;11.57;5.77;;;;;;;0.75;57.95;100438.25;5099554;27;41164;-72
2022/03/22 04:33:01;;;;;;;7.13;5.47;;;;;;;0.66;59.05;100433.91;5134925;27;41709;-71
2022/03/22 04:35:28;;;;;;;12.23;7.17;;;;;;;0.68;59.81;100433.91;5135052;27;42731;-73
2022/03/22 04:37:58;;;;;;;10.80;7.40;;;;;;;0.68;59.49;100433.91;5134858;27;43287;-71
2022/03/22 04:40:26;;;;;;;12.30;7.73;;;;;;;0.65;59.00;100445.19;5116688;27;41965;-73
2022/03/22 04:42:54;;;;;;;13.87;6.37;;;;;;;0.64;59.17;100442.56;5134695;27;42831;-74
2022/03/22 04:45:21;;;;;;;12.33;6.83;;;;;;;0.61;60.19;100434.78;5134935;27;43526;-74
2022/03/22 04:47:49;;;;;;;14.73;7.47;;;;;;;0.63;60.38;100439.09;5150492;27;42413;-72
2022/03/22 04:50:18;;;;;;;10.13;6.80;;;;;;;0.63;60.30;100440.84;5116431;27;39972;-71
2022/03/22 04:58:18;;;;;;;13.07;6.97;;;;;;;0.54;59.65;100448.63;5095599;28;42283;-74
2022/03/22 05:00:47;;;;;;;11.60;6.67;;;;;;;0.51;59.71;100451.22;5095552;28;40244;-74
2022/03/22 05:03:14;;;;;;;8.77;6.83;;;;;;;0.50;59.31;100457.28;5113965;28;41720;-74
2022/03/22 05:08:27;;;;;;;9.30;5.83;;;;;;;0.38;59.37;100458.13;5131589;27;42403;-73
2022/03/22 05:10:56;;;;;;;9.17;5.60;;;;;;;0.44;60.62;100457.28;5098696;27;39931;-74
2022/03/22 05:13:24;;;;;;;10.47;6.80;;;;;;;0.36;59.67;100459.88;5115797;27;42331;-73
2022/03/22 05:15:52;;;;;;;9.77;5.97;;;;;;;0.42;59.67;100472.91;5115146;27;44509;-72
2022/03/22 05:18:20;;;;;;;7.60;5.60;;;;;;;0.28;59.34;100451.13;5134215;27;42287;-73
2022/03/22 05:20:48;;;;;;;8.57;5.53;;;;;;;0.39;59.50;100470.28;5133798;27;41719;-75
2022/03/22 05:23:15;;;;;;;8.60;6.13;;;;;;;0.41;59.58;100478.13;5115109;27;40595;-75
2022/03/22 05:25:43;;;;;;;9.43;6.90;;;;;;;0.41;60.88;100463.34;5133724;27;42572;-73
2022/03/22 05:28:12;;;;;;;12.37;7.30;;;;;;;0.41;60.87;100463.34;5132223;27;42045;-75
2022/03/22 05:30:40;;;;;;;11.83;7.23;;;;;;;0.40;60.17;100455.53;5119023;27;39826;-71
2022/03/22 05:33:07;;;;;;;11.53;6.40;;;;;;;0.44;60.60;100462.50;5106389;27;43167;-74
2022/03/22 05:35:35;;;;;;;11.00;6.07;;;;;;;0.48;60.12;100470.34;5115603;27;42806;-74
2022/03/22 05:38:03;;;;;;;10.60;6.37;;;;;;;0.50;60.18;100472.94;5133955;27;43242;-74
2022/03/22 05:40:31;;;;;;;13.30;6.90;;;;;;;0.52;60.39;100471.22;5136340;27;41727;-73
2022/03/22 05:42:59;;;;;;;10.80;6.93;;;;;;;0.57;60.05;100479.94;5115358;27;41507;-76
2022/03/22 05:45:28;;;;;;;14.23;7.47;;;;;;;0.60;59.78;100479.94;5097881;27;42079;-72
2022/03/22 05:47:56;;;;;;;10.60;6.33;;;;;;;0.63;60.21;100477.31;5114668;27;42100;-74
2022/03/22 05:50:24;;;;;;;13.67;8.20;;;;;;;0.63;59.86;100479.94;5130683;27;41765;-74
2022/03/22 05:52:52;;;;;;;9.40;5.83;;;;;;;0.71;59.63;100480.84;5097355;27;40236;-72
2022/03/22 05:55:19;;;;;;;11.23;6.43;;;;;;;0.76;59.48;100492.16;5097825;27;43802;-73
2022/03/22 05:57:47;;;;;;;9.53;6.13;;;;;;;0.73;59.50;100479.13;5115100;27;41227;-74
2022/03/22 06:00:18;;;;;;;12.27;6.60;;;;;;;0.84;59.36;100480.03;5133261;27;41897;-71
2022/03/22 06:02:47;;;;;;;11.97;7.13;;;;;;;0.90;59.33;100485.25;5133222;27;41741;-71
2022/03/22 06:05:15;;;;;;;10.83;5.70;;;;;;;0.79;59.87;100453.06;5133140;27;43597;-71
2022/03/22 06:07:43;;;;;;;13.40;6.63;;;;;;;1.03;59.32;100496.56;5114553;27;43474;-72
2022/03/22 06:10:13;;;;;;;9.63;6.30;;;;;;;1.08;59.07;100489.66;5133304;27;41732;-72
2022/03/22 06:12:42;;;;;;;8.37;5.70;;;;;;;1.13;58.77;100489.63;5114562;27;40420;-73
2022/03/22 06:15:17;;;;;;;11.43;6.70;;;;;;;1.18;58.59;100480.97;5114733;27;42815;-73
2022/03/22 06:17:47;;;;;;;8.23;5.83;;;;;;;1.26;58.55;100491.41;5149030;27;43232;-71
2022/03/22 06:20:16;;;;;;;9.83;6.07;;;;;;;1.32;58.32;100500.13;5114593;27;40666;-74
2022/03/22 06:22:45;;;;;;;10.07;6.10;;;;;;;1.36;58.13;100493.16;5148280;27;42344;-74
2022/03/22 06:25:13;;;;;;;10.03;6.53;;;;;;;1.50;58.09;100499.25;5114597;27;43608;-73
2022/03/22 06:27:41;;;;;;;11.90;6.87;;;;;;;1.68;57.60;100496.66;5097589;27;42742;-71
2022/03/22 06:30:12;;;;;;;10.87;7.03;;;;;;;2.04;57.69;100503.56;5133227;27;41700;-74
2022/03/22 06:32:42;;;;;;;11.57;7.03;;;;;;;2.55;56.75;100498.22;5130429;27;42441;-74
2022/03/22 06:35:11;;;;;;;12.60;7.20;;;;;;;3.04;55.70;100507.56;5118197;27;44348;-72
2022/03/22 06:37:40;;;;;;;13.33;7.63;;;;;;;3.12;56.07;100500.53;5096589;27;41400;-76
2022/03/22 06:40:09;;;;;;;16.07;9.67;;;;;;;3.08;57.14;100498.81;5095556;27;39828;-75
2022/03/22 06:42:38;;;;;;;13.23;8.67;;;;;;;3.14;56.80;100498.78;5095857;27;43601;-77
2022/03/22 06:45:07;;;;;;;11.10;8.17;;;;;;;3.41;56.29;100517.81;5087776;27;42605;-75
2022/03/22 06:47:35;;;;;;;12.07;8.23;;;;;;;3.58;56.43;100503.72;5096683;27;40987;-74
2022/03/22 06:50:03;;;;;;;11.47;7.50;;;;;;;3.91;55.64;100520.03;5113735;27;40890;-78
2022/03/22 06:52:33;;;;;;;13.47;8.40;;;;;;;4.16;54.99;100520.66;5097009;27;42177;-76
2022/03/22 06:55:01;;;;;;;12.50;7.60;;;;;;;4.37;54.78;100523.06;5096111;27;44297;-76
2022/03/22 06:57:31;;;;;;;16.77;10.40;;;;;;;4.59;54.20;100531.53;5113747;27;43219;-76
2022/03/22 07:00:00;;;;;;;12.33;8.20;;;;;;;5.00;53.15;100539.78;5095700;27;39788;-79
2022/03/22 07:02:28;;;;;;;15.13;8.50;;;;;;;5.65;51.91;100555.53;5114287;27;41832;-74
2022/03/22 07:04:56;;;;;;;12.73;8.17;;;;;;;6.55;49.80;100561.91;5131951;27;42553;-76
2022/03/22 07:07:24;;;;;;;12.97;8.63;;;;;;;7.26;48.51;100563.06;5113938;27;42030;-75
2022/03/22 07:09:53;;;;;;;13.50;8.80;;;;;;;7.97;47.12;100579.00;5113244;27;39872;-75
2022/03/22 07:12:20;;;;;;;11.73;7.87;;;;;;;9.13;45.16;100583.84;5132119;27;41976;-75
2022/03/22 07:14:48;;;;;;;9.57;7.40;;;;;;;10.90;41.97;100555.94;5148296;27;43705;-77
2022/03/22 07:17:16;;;;;;;12.07;8.03;;;;;;;13.37;38.63;100615.66;5148485;27;42313;-79
2022/03/22 07:19:43;;;;;;;10.90;8.60;;;;;;;15.42;35.17;100637.38;5130678;27;41047;-78
2022/03/22 07:22:11;;;;;;;11.77;8.20;;;;;;;17.13;32.37;100646.25;5131295;27;43562;-78
2022/03/22 07:24:39;;;;;;;11.43;9.20;;;;;;;18.54;30.56;100660.47;5096080;27;42793;-79
2022/03/22 07:27:08;;;;;;;10.20;9.00;;;;;;;19.76;28.82;100673.53;5096446;27;41373;-75
2022/03/22 07:29:36;;;;;;;11.80;9.90;;;;;;;20.77;26.44;100683.97;5113201;27;40038;-77
2022/03/22 07:32:04;;;;;;;11.70;8.90;;;;;;;21.56;25.80;100660.75;5130889;27;40658;-76
2022/03/22 07:34:39;;;;;;;10.60;9.10;;;;;;;22.72;24.12;100695.34;5113488;27;43208;-81
2022/03/22 07:37:07;;;;;;;10.33;8.77;;;;;;;23.59;22.14;100702.28;5114884;27;41562;-74
2022/03/22 07:39:35;;;;;;;10.10;9.10;;;;;;;24.17;21.91;100691.69;5113517;27;41112;-75
2022/03/22 07:42:04;;;;;;;9.40;8.40;;;;;;;24.57;21.01;100692.53;5130678;27;41655;-76
2022/03/22 07:44:33;;;;;;;10.37;8.83;;;;;;;24.73;20.96;100700.06;5112359;27;43209;-77
2022/03/22 07:47:00;;;;;;;10.60;9.10;;;;;;;25.47;20.32;100694.91;5126674;27;42279;-77
2022/03/22 07:54:59;;;;;;;10.37;9.37;;;;;;;29.85;16.88;100707.84;5128607;27;42762;-77
2022/03/22 07:57:27;;;;;;;9.13;8.32;;;;;;;30.82;15.32;100712.03;5112918;27;43811;-79
2022/03/22 07:59:56;;;;;;;9.00;8.20;;;;;;;31.24;14.38;100722.53;5112656;27;42969;-76
2022/03/22 08:02:24;;;;;;;8.40;7.60;;;;;;;29.86;15.81;100709.53;5111633;27;41903;-78
2022/03/22 08:04:51;;;;;;;8.30;7.50;;;;;;;27.43;16.82;100702.47;5133728;27;42765;-79
2022/03/22 08:07:19;;;;;;;9.07;8.17;;;;;;;25.95;17.21;100696.66;5130693;27;42153;-81
2022/03/22 08:09:46;;;;;;;8.43;7.60;;;;;;;24.53;18.40;100696.50;5122199;27;39762;-76
2022/03/22 08:12:14;;;;;;;9.20;8.30;;;;;;;22.65;20.38;100684.16;5130517;27;41895;-76
2022/03/22 08:14:41;;;;;;;9.17;7.97;;;;;;;21.09;22.00;100671.56;5118898;27;43737;-76
2022/03/22 08:17:11;;;;;;;11.40;8.37;;;;;;;20.19;23.43;100661.34;5093999;27;42591;-76
2022/03/22 08:19:38;;;;;;;10.93;8.50;;;;;;;20.08;23.72;100658.59;5129628;27;41915;-76
2022/03/22 08:22:06;;;;;;;9.23;7.80;;;;;;;21.08;22.53;100618.66;5131141;27;42013;-76
2022/03/22 08:24:34;;;;;;;9.67;7.67;;;;;;;23.01;21.83;100664.00;5119845;27;43247;-76
2022/03/22 08:27:01;;;;;;;9.77;8.47;;;;;;;24.11;20.12;100673.31;5130135;27;42091;-74
2022/03/22 08:29:29;;;;;;;9.20;8.13;;;;;;;25.10;18.89;100656.88;5103156;27;40394;-78
2022/03/22 08:31:57;;;;;;;7.93;7.13;;;;;;;26.72;18.32;100694.31;5134732;27;42745;-78
2022/03/22 08:34:26;;;;;;;8.30;7.07;;;;;;;26.34;18.18;100678.28;5134994;27;42547;-80
2022/03/22 08:36:54;;;;;;;8.90;7.30;;;;;;;25.87;17.55;100686.53;5099979;27;41484;-79
2022/03/22 08:39:23;;;;;;;8.03;7.00;;;;;;;27.24;16.62;100694.47;5116977;27;41144;-79
2022/03/22 08:41:52;;;;;;;8.00;7.30;;;;;;;28.57;14.89;100705.75;5127185;27;41026;-80
2022/03/22 08:44:20;;;;;;;7.93;7.20;;;;;;;29.80;14.52;100711.09;5128735;27;41428;-79
2022/03/22 08:46:51;;;;;;;8.10;7.30;;;;;;;31.29;12.61;100725.53;5134314;27;42264;-77
2022/03/22 08:49:18;;;;;;;7.57;6.90;;;;;;;32.26;12.50;100708.13;5124485;27;41914;-76
2022/03/22 08:51:51;;;;;;;7.60;7.00;;;;;;;33.10;11.30;100720.28;5133426;27;43331;-78
2022/03/22 08:54:19;;;;;;;7.47;6.55;;;;;;;33.89;11.01;100712.69;5098123;27;42984;-78
2022/03/22 08:56:51;;;;;;;6.80;6.30;;;;;;;34.10;10.48;100717.25;5131689;27;41581;-82
2022/03/22 08:59:19;;;;;;;7.20;6.60;;;;;;;34.34;10.96;100699.41;5134220;27;40886;-84
2022/03/22 09:01:46;;;;;;;7.47;6.78;;;;;;;34.43;10.94;100700.94;5115753;27;41775;-76
2022/03/22 09:07:01;;;;;;;7.47;6.80;;;;;;;33.42;10.68;100698.78;5095031;28;43241;-77
2022/03/22 09:09:30;;;;;;;6.67;5.97;;;;;;;31.97;11.22;100713.59;5090968;27;40593;-79
2022/03/22 09:11:58;;;;;;;7.13;6.53;;;;;;;31.54;11.20;100707.84;5116508;27;42726;-78
2022/03/22 09:14:27;;;;;;;6.80;6.20;;;;;;;31.75;11.38;100687.97;5133912;27;42864;-78
2022/03/22 09:16:55;;;;;;;7.95;7.25;;;;;;;33.09;10.43;100710.31;5115922;27;42217;-76
2022/03/22 09:19:22;;;;;;;7.40;6.70;;;;;;;34.65;9.65;100709.88;5134020;27;41040;-82
2022/03/22 09:21:50;;;;;;;7.22;6.63;;;;;;;35.48;9.52;100713.22;5115606;27;41897;-81
2022/03/22 09:24:19;;;;;;;7.60;6.90;;;;;;;34.29;10.05;100704.66;5133487;27;43517;-81
2022/03/22 09:26:46;;;;;;;7.13;6.50;;;;;;;33.42;9.66;100701.53;5115927;27;42914;-81
2022/03/22 09:29:14;;;;;;;7.70;6.03;;;;;;;32.32;10.86;100704.59;5134108;27;40960;-80
2022/03/22 09:31:41;;;;;;;7.03;6.43;;;;;;;31.14;11.58;100686.34;5116104;27;41747;-79
2022/03/22 09:34:13;;;;;;;7.27;6.67;;;;;;;30.70;11.63;100687.81;5116008;27;42833;-78
2022/03/22 09:36:40;;;;;;;7.07;6.47;;;;;;;29.76;12.28;100679.72;5134468;27;42675;-77
2022/03/22 09:39:08;;;;;;;7.40;6.70;;;;;;;29.28;12.19;100673.28;5118004;27;39583;-81
2022/03/22 09:41:39;;;;;;;6.40;5.80;;;;;;;29.97;12.00;100671.78;5115121;27;42157;-79
2022/03/22 09:44:06;;;;;;;6.60;6.00;;;;;;;29.56;12.79;100670.19;5115944;27;42838;-79
2022/03/22 09:46:34;;;;;;;7.77;6.57;;;;;;;29.00;13.20;100665.63;5115762;27;42475;-77
2022/03/22 09:49:02;;;;;;;7.43;6.67;;;;;;;29.15;13.12;100656.59;5115344;27;40878;-79
2022/03/22 09:54:26;;;;;;;7.57;6.87;;;;;;;29.73;13.08;100651.88;5101117;27;43705;-77
2022/03/22 09:56:55;;;;;;;7.23;6.53;;;;;;;29.07;13.62;100644.81;5133749;27;43067;-77
2022/03/22 09:59:23;;;;;;;7.13;6.43;;;;;;;28.44;13.60;100651.72;5133303;27;41843;-79
2022/03/22 10:01:50;;;;;;;7.13;6.43;;;;;;;28.40;13.83;100639.47;5134110;27;41509;-76
2022/03/22 10:04:18;;;;;;;7.83;7.13;;;;;;;27.78;13.86;100594.47;5115311;27;42758;-78
2022/03/22 10:06:54;;;;;;;7.70;6.60;;;;;;;27.25;14.07;100625.44;5097901;27;41148;-78
2022/03/22 10:09:30;;;;;;;7.80;7.00;;;;;;;27.59;14.10;100619.22;5130545;27;42600;-81
2022/03/22 10:12:07;;;;;;;7.00;6.30;;;;;;;28.00;14.19;100626.53;5098373;27;40617;-76
2022/03/22 10:14:42;;;;;;;7.77;6.97;;;;;;;27.99;14.29;100624.84;5097426;27;43095;-75
2022/03/22 10:17:12;;;;;;;7.00;6.37;;;;;;;28.29;14.09;100630.75;5133679;27;43207;-81
2022/03/22 10:19:44;;;;;;;6.77;6.17;;;;;;;28.09;14.49;100619.25;5134080;27;40806;-75
2022/03/22 10:22:12;;;;;;;8.03;7.23;;;;;;;28.39;14.14;100620.56;5129332;27;41005;-79
2022/03/22 10:24:45;;;;;;;7.57;6.87;;;;;;;29.41;14.02;100600.97;5148654;27;43478;-85
2022/03/22 10:27:27;;;;;;;7.17;6.47;;;;;;;30.94;13.14;100621.13;5114324;27;41227;-79
2022/03/22 10:30:17;;;;;;;9.43;7.30;;;;;;;31.95;12.77;100611.50;5132609;27;41225;-84
2022/03/22 10:32:53;;;;;;;6.70;5.90;;;;;;;32.99;12.05;100616.47;5103334;27;42388;-86
2022/03/22 10:35:23;;;;;;;7.83;7.13;;;;;;;33.14;11.15;100599.88;5104689;27;42401;-87
2022/03/22 10:37:52;;;;;;;7.63;6.93;;;;;;;33.00;11.40;100590.72;5102564;27;42942;-81
2022/03/22 10:40:25;;;;;;;9.30;7.00;;;;;;;32.71;11.20;100623.78;5097336;27;40470;-77
2022/03/22 10:42:57;;;;;;;7.77;7.07;;;;;;;32.79;12.27;100618.19;5114463;27;44738;-77
2022/03/22 10:45:25;;;;;;;6.97;6.27;;;;;;;33.40;10.96;100629.47;5111038;27;43478;-77
2022/03/22 10:47:52;;;;;;;7.07;6.47;;;;;;;34.09;10.32;100629.47;5132291;27;42289;-78
2022/03/22 10:50:20;;;;;;;7.50;6.80;;;;;;;34.97;10.64;100627.59;5129438;27;41610;-79
2022/03/22 10:52:56;;;;;;;7.50;6.90;;;;;;;36.53;9.41;100621.84;5097685;27;40470;-78
2022/03/22 10:55:27;;;;;;;7.15;6.55;;;;;;;37.48;8.66;100632.78;5113580;27;42126;-82
2022/03/22 10:58:00;;;;;;;6.60;6.10;;;;;;;38.08;8.23;100629.16;5130084;27;42373;-79
2022/03/22 11:00:30;;;;;;;6.38;5.78;;;;;;;38.71;7.84;100617.63;5109312;28;40616;-81
2022/03/22 11:02:58;;;;;;;7.00;6.38;;;;;;;39.36;7.72;100625.09;5076993;28;41875;-83
2022/03/22 11:05:27;;;;;;;6.03;5.53;;;;;;;39.97;7.36;100620.94;5116913;27;43712;-80
2022/03/22 11:07:57;;;;;;;6.20;5.70;;;;;;;40.25;7.22;100611.78;5130696;27;42229;-80
2022/03/22 11:10:29;;;;;;;5.82;5.28;;;;;;;40.94;7.60;100604.19;5113663;27;41070;-78
2022/03/22 11:12:58;;;;;;;5.88;5.35;;;;;;;41.35;6.82;100601.00;5097574;27;41601;-81
2022/03/22 11:15:27;;;;;;;5.72;5.22;;;;;;;41.53;6.76;100592.38;5114938;27;41817;-80
2022/03/22 11:17:56;;;;;;;5.63;5.13;;;;;;;41.29;6.99;100590.91;5115875;27;44173;-77
2022/03/22 11:20:27;;;;;;;6.00;5.50;;;;;;;40.61;7.20;100594.72;5135213;27;42019;-77
2022/03/22 11:22:57;;;;;;;6.03;5.53;;;;;;;40.91;6.44;100594.44;5129347;27;41749;-80
2022/03/22 11:25:28;;;;;;;5.75;5.28;;;;;;;41.49;6.37;100591.19;5113472;27;42142;-79
2022/03/22 11:27:59;;;;;;;5.25;4.78;;;;;;;42.20;6.63;100586.53;5097563;27;41261;-79
2022/03/22 11:30:29;;;;;;;5.28;4.88;;;;;;;43.18;6.63;100578.00;5096801;27;40143;-78
2022/03/22 11:35:52;;;;;;;5.80;5.30;;;;;;;44.72;5.40;100567.97;5093492;28;42671;-80
2022/03/22 11:38:44;;;;;;;5.35;4.95;;;;;;;45.09;6.18;100557.34;5113441;27;42691;-83
2022/03/22 11:44:12;;;;;;;5.68;5.18;;;;;;;42.81;6.66;100541.75;5115297;27;42787;-81
2022/03/22 11:46:40;;;;;;;6.03;5.53;;;;;;;40.86;7.55;100536.84;5124050;27;42297;-81
2022/03/22 11:49:13;;;;;;;6.20;5.70;;;;;;;39.63;7.30;100537.53;5106861;27;41624;-82
2022/03/22 11:51:48;;;;;;;6.30;5.80;;;;;;;40.42;7.50;100529.41;5130376;27;40015;-79
2022/03/22 11:54:16;;;;;;;6.63;6.13;;;;;;;41.68;7.19;100518.53;5131438;27;41748;-83
2022/03/22 11:56:49;;;;;;;6.93;5.80;;;;;;;42.71;6.34;100531.31;5114487;27;43366;-80
2022/03/22 11:59:21;;;;;;;5.82;5.32;;;;;;;43.35;6.46;100528.47;5131659;27;42453;-83
2022/03/22 12:02:00;;;;;;;6.00;5.50;;;;;;;43.96;5.73;100531.50;5079783;28;40634;-82
2022/03/22 12:04:37;;;;;;;5.15;4.75;;;;;;;44.10;5.79;100520.69;5105543;27;41665;-81
2022/03/22 12:07:07;;;;;;;5.55;5.10;;;;;;;44.11;5.37;100519.56;5114866;27;43899;-80
2022/03/22 12:09:38;;;;;;;6.25;5.65;;;;;;;43.95;5.79;100529.81;5096508;28;41287;-79
2022/03/22 12:12:09;;;;;;;5.78;5.38;;;;;;;43.71;6.15;100515.53;5111049;28;41013;-78